sensor_id;sensor_type;location;lat;lon;timestamp;P1;durP1;ratioP1;P2;durP2;ratioP2
52508;SDS011;38420;53.150;6.370;2024-01-10T00:00:18;18.75;;;8.68;;
52508;SDS011;38420;53.150;6.370;2024-01-10T00:02:44;18.55;;;8.70;;
52508;SDS011;38420;53.150;6.370;2024-01-10T00:05:09;20.15;;;9.65;;
52508;SDS011;38420;53.150;6.370;2024-01-10T00:07:35;20.70;;;10.10;;
52508;SDS011;38420;53.150;6.370;2024-01-10T00:10:01;18.13;;;8.52;;
52508;SDS011;38420;53.150;6.370;2024-01-10T00:12:28;26.08;;;11.18;;
52508;SDS011;38420;53.150;6.370;2024-01-10T00:14:58;21.38;;;10.07;;
52508;SDS011;38420;53.150;6.370;2024-01-10T00:17:24;22.45;;;9.25;;
52508;SDS011;38420;53.150;6.370;2024-01-10T00:19:49;21.67;;;9.63;;
52508;SDS011;38420;53.150;6.370;2024-01-10T00:22:15;19.08;;;9.15;;
52508;SDS011;38420;53.150;6.370;2024-01-10T00:24:40;19.48;;;9.18;;
52508;SDS011;38420;53.150;6.370;2024-01-10T00:27:06;20.35;;;8.98;;
52508;SDS011;38420;53.150;6.370;2024-01-10T00:29:32;19.08;;;8.13;;
52508;SDS011;38420;53.150;6.370;2024-01-10T00:31:57;22.50;;;9.75;;
52508;SDS011;38420;53.150;6.370;2024-01-10T00:34:24;18.25;;;9.93;;
52508;SDS011;38420;53.150;6.370;2024-01-10T00:36:50;19.67;;;8.68;;
52508;SDS011;38420;53.150;6.370;2024-01-10T00:39:16;23.25;;;10.40;;
52508;SDS011;38420;53.150;6.370;2024-01-10T00:41:41;16.35;;;8.68;;
52508;SDS011;38420;53.150;6.370;2024-01-10T00:44:07;16.90;;;7.00;;
52508;SDS011;38420;53.150;6.370;2024-01-10T00:46:33;17.77;;;8.52;;
52508;SDS011;38420;53.150;6.370;2024-01-10T00:48:58;20.55;;;9.60;;
52508;SDS011;38420;53.150;6.370;2024-01-10T00:51:24;18.92;;;8.18;;
52508;SDS011;38420;53.150;6.370;2024-01-10T00:53:50;16.75;;;8.32;;
52508;SDS011;38420;53.150;6.370;2024-01-10T00:56:15;17.90;;;8.00;;
52508;SDS011;38420;53.150;6.370;2024-01-10T00:58:41;18.88;;;8.77;;
52508;SDS011;38420;53.150;6.370;2024-01-10T01:01:07;17.90;;;7.50;;
52508;SDS011;38420;53.150;6.370;2024-01-10T01:03:32;16.95;;;7.82;;
52508;SDS011;38420;53.150;6.370;2024-01-10T01:05:58;16.58;;;7.93;;
52508;SDS011;38420;53.150;6.370;2024-01-10T01:08:23;19.08;;;7.93;;
52508;SDS011;38420;53.150;6.370;2024-01-10T01:10:49;13.23;;;7.38;;
52508;SDS011;38420;53.150;6.370;2024-01-10T01:13:15;17.73;;;7.75;;
52508;SDS011;38420;53.150;6.370;2024-01-10T01:15:40;18.63;;;8.43;;
52508;SDS011;38420;53.150;6.370;2024-01-10T01:18:06;16.30;;;7.28;;
52508;SDS011;38420;53.150;6.370;2024-01-10T01:20:32;19.13;;;7.15;;
52508;SDS011;38420;53.150;6.370;2024-01-10T01:22:58;14.93;;;6.88;;
52508;SDS011;38420;53.150;6.370;2024-01-10T01:25:23;18.02;;;8.30;;
52508;SDS011;38420;53.150;6.370;2024-01-10T01:27:49;16.73;;;8.00;;
52508;SDS011;38420;53.150;6.370;2024-01-10T01:30:14;15.48;;;7.40;;
52508;SDS011;38420;53.150;6.370;2024-01-10T01:32:40;18.58;;;9.13;;
52508;SDS011;38420;53.150;6.370;2024-01-10T01:35:06;19.42;;;9.23;;
52508;SDS011;38420;53.150;6.370;2024-01-10T01:37:31;20.75;;;9.88;;
52508;SDS011;38420;53.150;6.370;2024-01-10T01:39:57;18.85;;;8.73;;
52508;SDS011;38420;53.150;6.370;2024-01-10T01:42:22;18.35;;;8.85;;
52508;SDS011;38420;53.150;6.370;2024-01-10T01:44:48;19.27;;;9.77;;
52508;SDS011;38420;53.150;6.370;2024-01-10T01:47:14;23.45;;;9.15;;
52508;SDS011;38420;53.150;6.370;2024-01-10T01:49:40;20.95;;;9.32;;
52508;SDS011;38420;53.150;6.370;2024-01-10T01:52:07;21.75;;;10.23;;
52508;SDS011;38420;53.150;6.370;2024-01-10T01:54:34;21.00;;;9.65;;
52508;SDS011;38420;53.150;6.370;2024-01-10T01:57:00;21.58;;;8.75;;
52508;SDS011;38420;53.150;6.370;2024-01-10T01:59:26;22.05;;;10.23;;
52508;SDS011;38420;53.150;6.370;2024-01-10T02:01:52;18.65;;;9.65;;
52508;SDS011;38420;53.150;6.370;2024-01-10T02:04:20;19.33;;;9.25;;
52508;SDS011;38420;53.150;6.370;2024-01-10T02:06:45;19.30;;;8.70;;
52508;SDS011;38420;53.150;6.370;2024-01-10T02:09:11;18.95;;;8.32;;
52508;SDS011;38420;53.150;6.370;2024-01-10T02:11:37;17.65;;;9.43;;
52508;SDS011;38420;53.150;6.370;2024-01-10T02:14:02;16.67;;;8.38;;
52508;SDS011;38420;53.150;6.370;2024-01-10T02:16:28;19.23;;;9.57;;
52508;SDS011;38420;53.150;6.370;2024-01-10T02:18:54;15.25;;;8.30;;
52508;SDS011;38420;53.150;6.370;2024-01-10T02:21:20;14.63;;;7.50;;
52508;SDS011;38420;53.150;6.370;2024-01-10T02:23:47;15.43;;;7.53;;
52508;SDS011;38420;53.150;6.370;2024-01-10T02:26:12;16.23;;;8.20;;
52508;SDS011;38420;53.150;6.370;2024-01-10T02:28:39;19.83;;;7.85;;
52508;SDS011;38420;53.150;6.370;2024-01-10T02:31:04;20.25;;;10.25;;
52508;SDS011;38420;53.150;6.370;2024-01-10T02:33:31;17.73;;;8.98;;
52508;SDS011;38420;53.150;6.370;2024-01-10T02:35:57;17.13;;;8.80;;
52508;SDS011;38420;53.150;6.370;2024-01-10T02:38:23;21.35;;;8.75;;
52508;SDS011;38420;53.150;6.370;2024-01-10T02:40:49;19.23;;;9.82;;
52508;SDS011;38420;53.150;6.370;2024-01-10T02:43:14;22.33;;;10.48;;
52508;SDS011;38420;53.150;6.370;2024-01-10T02:45:40;17.85;;;8.85;;
52508;SDS011;38420;53.150;6.370;2024-01-10T02:48:06;17.05;;;8.40;;
52508;SDS011;38420;53.150;6.370;2024-01-10T02:50:32;16.65;;;9.07;;
52508;SDS011;38420;53.150;6.370;2024-01-10T02:52:57;21.38;;;10.38;;
52508;SDS011;38420;53.150;6.370;2024-01-10T02:55:23;21.98;;;10.10;;
52508;SDS011;38420;53.150;6.370;2024-01-10T02:57:49;20.15;;;9.60;;
52508;SDS011;38420;53.150;6.370;2024-01-10T03:00:14;18.48;;;7.68;;
52508;SDS011;38420;53.150;6.370;2024-01-10T03:02:40;17.52;;;8.35;;
52508;SDS011;38420;53.150;6.370;2024-01-10T03:05:06;18.30;;;8.93;;
52508;SDS011;38420;53.150;6.370;2024-01-10T03:07:32;16.75;;;7.97;;
52508;SDS011;38420;53.150;6.370;2024-01-10T03:09:57;16.00;;;7.95;;
52508;SDS011;38420;53.150;6.370;2024-01-10T03:12:23;16.20;;;7.72;;
52508;SDS011;38420;53.150;6.370;2024-01-10T03:14:48;18.83;;;7.75;;
52508;SDS011;38420;53.150;6.370;2024-01-10T03:17:14;15.63;;;7.40;;
52508;SDS011;38420;53.150;6.370;2024-01-10T03:19:39;15.98;;;8.05;;
52508;SDS011;38420;53.150;6.370;2024-01-10T03:22:08;13.73;;;7.65;;
52508;SDS011;38420;53.150;6.370;2024-01-10T03:24:36;16.70;;;7.90;;
52508;SDS011;38420;53.150;6.370;2024-01-10T03:27:02;16.88;;;7.53;;
52508;SDS011;38420;53.150;6.370;2024-01-10T03:29:28;15.10;;;7.22;;
52508;SDS011;38420;53.150;6.370;2024-01-10T03:31:54;17.25;;;7.45;;
52508;SDS011;38420;53.150;6.370;2024-01-10T03:34:19;14.80;;;7.28;;
52508;SDS011;38420;53.150;6.370;2024-01-10T03:36:45;14.50;;;7.50;;
52508;SDS011;38420;53.150;6.370;2024-01-10T03:39:10;18.00;;;7.78;;
52508;SDS011;38420;53.150;6.370;2024-01-10T03:41:36;15.10;;;6.65;;
52508;SDS011;38420;53.150;6.370;2024-01-10T03:44:02;16.33;;;7.05;;
52508;SDS011;38420;53.150;6.370;2024-01-10T03:46:27;11.73;;;6.50;;
52508;SDS011;38420;53.150;6.370;2024-01-10T03:48:53;20.80;;;9.18;;
52508;SDS011;38420;53.150;6.370;2024-01-10T03:51:19;17.33;;;7.30;;
52508;SDS011;38420;53.150;6.370;2024-01-10T03:53:45;18.17;;;9.15;;
52508;SDS011;38420;53.150;6.370;2024-01-10T03:56:13;16.95;;;7.43;;
52508;SDS011;38420;53.150;6.370;2024-01-10T03:58:39;13.07;;;7.00;;
52508;SDS011;38420;53.150;6.370;2024-01-10T04:01:06;12.77;;;7.38;;
52508;SDS011;38420;53.150;6.370;2024-01-10T04:03:32;17.10;;;8.60;;
52508;SDS011;38420;53.150;6.370;2024-01-10T04:05:58;19.90;;;8.50;;
52508;SDS011;38420;53.150;6.370;2024-01-10T04:08:24;14.80;;;6.88;;
52508;SDS011;38420;53.150;6.370;2024-01-10T04:10:49;16.15;;;7.80;;
52508;SDS011;38420;53.150;6.370;2024-01-10T04:13:15;15.73;;;6.93;;
52508;SDS011;38420;53.150;6.370;2024-01-10T04:15:41;15.90;;;8.40;;
52508;SDS011;38420;53.150;6.370;2024-01-10T04:18:06;22.95;;;7.82;;
52508;SDS011;38420;53.150;6.370;2024-01-10T04:20:32;15.55;;;7.70;;
52508;SDS011;38420;53.150;6.370;2024-01-10T04:22:58;20.27;;;8.57;;
52508;SDS011;38420;53.150;6.370;2024-01-10T04:25:23;15.65;;;7.57;;
52508;SDS011;38420;53.150;6.370;2024-01-10T04:27:49;13.30;;;7.45;;
52508;SDS011;38420;53.150;6.370;2024-01-10T04:30:15;16.20;;;7.57;;
52508;SDS011;38420;53.150;6.370;2024-01-10T04:32:41;17.92;;;7.60;;
52508;SDS011;38420;53.150;6.370;2024-01-10T04:35:06;16.45;;;7.25;;
52508;SDS011;38420;53.150;6.370;2024-01-10T04:37:32;16.48;;;7.70;;
52508;SDS011;38420;53.150;6.370;2024-01-10T04:39:58;15.82;;;6.95;;
52508;SDS011;38420;53.150;6.370;2024-01-10T04:42:23;15.30;;;7.20;;
52508;SDS011;38420;53.150;6.370;2024-01-10T04:44:50;14.23;;;7.22;;
52508;SDS011;38420;53.150;6.370;2024-01-10T04:47:15;13.70;;;6.65;;
52508;SDS011;38420;53.150;6.370;2024-01-10T04:49:41;17.75;;;8.38;;
52508;SDS011;38420;53.150;6.370;2024-01-10T04:52:06;14.75;;;7.63;;
52508;SDS011;38420;53.150;6.370;2024-01-10T04:54:32;13.25;;;6.80;;
52508;SDS011;38420;53.150;6.370;2024-01-10T04:56:59;15.73;;;7.75;;
52508;SDS011;38420;53.150;6.370;2024-01-10T04:59:24;13.80;;;7.22;;
52508;SDS011;38420;53.150;6.370;2024-01-10T05:01:50;15.07;;;7.20;;
52508;SDS011;38420;53.150;6.370;2024-01-10T05:04:15;14.95;;;6.78;;
52508;SDS011;38420;53.150;6.370;2024-01-10T05:06:41;14.30;;;7.13;;
52508;SDS011;38420;53.150;6.370;2024-01-10T05:09:07;16.80;;;6.60;;
52508;SDS011;38420;53.150;6.370;2024-01-10T05:11:32;12.45;;;6.50;;
52508;SDS011;38420;53.150;6.370;2024-01-10T05:14:00;17.00;;;8.02;;
52508;SDS011;38420;53.150;6.370;2024-01-10T05:16:26;17.02;;;7.72;;
52508;SDS011;38420;53.150;6.370;2024-01-10T05:18:52;14.85;;;6.70;;
52508;SDS011;38420;53.150;6.370;2024-01-10T05:21:17;17.77;;;8.82;;
52508;SDS011;38420;53.150;6.370;2024-01-10T05:23:43;16.40;;;7.43;;
52508;SDS011;38420;53.150;6.370;2024-01-10T05:26:09;18.27;;;8.02;;
52508;SDS011;38420;53.150;6.370;2024-01-10T05:28:35;16.58;;;7.70;;
52508;SDS011;38420;53.150;6.370;2024-01-10T05:31:00;15.07;;;8.68;;
52508;SDS011;38420;53.150;6.370;2024-01-10T05:33:26;16.45;;;8.40;;
52508;SDS011;38420;53.150;6.370;2024-01-10T05:35:52;17.17;;;6.95;;
52508;SDS011;38420;53.150;6.370;2024-01-10T05:38:17;20.83;;;7.97;;
52508;SDS011;38420;53.150;6.370;2024-01-10T05:40:43;15.23;;;7.57;;
52508;SDS011;38420;53.150;6.370;2024-01-10T05:43:09;14.70;;;7.25;;
52508;SDS011;38420;53.150;6.370;2024-01-10T05:45:37;16.23;;;7.93;;
52508;SDS011;38420;53.150;6.370;2024-01-10T05:48:03;18.67;;;8.30;;
52508;SDS011;38420;53.150;6.370;2024-01-10T05:50:29;12.80;;;6.70;;
52508;SDS011;38420;53.150;6.370;2024-01-10T05:52:55;14.93;;;8.30;;
52508;SDS011;38420;53.150;6.370;2024-01-10T05:55:20;15.52;;;7.72;;
52508;SDS011;38420;53.150;6.370;2024-01-10T05:57:46;17.17;;;7.88;;
52508;SDS011;38420;53.150;6.370;2024-01-10T06:00:12;17.85;;;8.85;;
52508;SDS011;38420;53.150;6.370;2024-01-10T06:02:38;16.02;;;6.90;;
52508;SDS011;38420;53.150;6.370;2024-01-10T06:05:05;16.17;;;6.10;;
52508;SDS011;38420;53.150;6.370;2024-01-10T06:07:32;14.88;;;7.45;;
52508;SDS011;38420;53.150;6.370;2024-01-10T06:09:57;15.90;;;7.82;;
52508;SDS011;38420;53.150;6.370;2024-01-10T06:12:23;13.93;;;6.88;;
52508;SDS011;38420;53.150;6.370;2024-01-10T06:14:50;19.77;;;8.40;;
52508;SDS011;38420;53.150;6.370;2024-01-10T06:17:15;12.65;;;7.78;;
52508;SDS011;38420;53.150;6.370;2024-01-10T06:19:41;14.20;;;6.55;;
52508;SDS011;38420;53.150;6.370;2024-01-10T06:22:07;13.95;;;8.00;;
52508;SDS011;38420;53.150;6.370;2024-01-10T06:24:32;20.02;;;7.65;;
52508;SDS011;38420;53.150;6.370;2024-01-10T06:26:58;19.63;;;8.82;;
52508;SDS011;38420;53.150;6.370;2024-01-10T06:29:24;14.27;;;7.50;;
52508;SDS011;38420;53.150;6.370;2024-01-10T06:31:49;17.92;;;7.63;;
52508;SDS011;38420;53.150;6.370;2024-01-10T06:34:15;24.15;;;10.02;;
52508;SDS011;38420;53.150;6.370;2024-01-10T06:36:41;17.85;;;9.32;;
52508;SDS011;38420;53.150;6.370;2024-01-10T06:39:08;16.58;;;8.02;;
52508;SDS011;38420;53.150;6.370;2024-01-10T06:41:37;18.40;;;8.20;;
52508;SDS011;38420;53.150;6.370;2024-01-10T06:44:03;17.58;;;8.70;;
52508;SDS011;38420;53.150;6.370;2024-01-10T06:46:29;16.35;;;7.75;;
52508;SDS011;38420;53.150;6.370;2024-01-10T06:48:55;18.75;;;10.25;;
52508;SDS011;38420;53.150;6.370;2024-01-10T06:51:21;16.52;;;8.30;;
52508;SDS011;38420;53.150;6.370;2024-01-10T06:53:47;17.20;;;9.20;;
52508;SDS011;38420;53.150;6.370;2024-01-10T06:56:12;18.10;;;7.95;;
52508;SDS011;38420;53.150;6.370;2024-01-10T06:58:38;18.75;;;8.55;;
52508;SDS011;38420;53.150;6.370;2024-01-10T07:01:04;18.25;;;9.40;;
52508;SDS011;38420;53.150;6.370;2024-01-10T07:03:36;20.83;;;9.25;;
52508;SDS011;38420;53.150;6.370;2024-01-10T07:06:02;18.60;;;8.43;;
52508;SDS011;38420;53.150;6.370;2024-01-10T07:08:27;18.63;;;8.15;;
52508;SDS011;38420;53.150;6.370;2024-01-10T07:10:53;16.55;;;8.93;;
52508;SDS011;38420;53.150;6.370;2024-01-10T07:13:20;17.13;;;9.13;;
52508;SDS011;38420;53.150;6.370;2024-01-10T07:15:46;18.80;;;8.82;;
52508;SDS011;38420;53.150;6.370;2024-01-10T07:18:12;15.63;;;7.88;;
52508;SDS011;38420;53.150;6.370;2024-01-10T07:20:37;15.77;;;8.40;;
52508;SDS011;38420;53.150;6.370;2024-01-10T07:23:03;17.67;;;8.63;;
52508;SDS011;38420;53.150;6.370;2024-01-10T07:25:28;20.40;;;8.98;;
52508;SDS011;38420;53.150;6.370;2024-01-10T07:27:54;17.80;;;8.07;;
52508;SDS011;38420;53.150;6.370;2024-01-10T07:30:19;16.17;;;7.45;;
52508;SDS011;38420;53.150;6.370;2024-01-10T07:32:45;16.15;;;8.13;;
52508;SDS011;38420;53.150;6.370;2024-01-10T07:35:12;16.95;;;8.05;;
52508;SDS011;38420;53.150;6.370;2024-01-10T07:37:41;25.13;;;9.20;;
52508;SDS011;38420;53.150;6.370;2024-01-10T07:40:10;16.45;;;8.27;;
52508;SDS011;38420;53.150;6.370;2024-01-10T07:42:36;14.95;;;7.50;;
52508;SDS011;38420;53.150;6.370;2024-01-10T07:45:03;17.58;;;7.63;;
52508;SDS011;38420;53.150;6.370;2024-01-10T07:47:32;18.38;;;8.57;;
52508;SDS011;38420;53.150;6.370;2024-01-10T07:50:05;17.70;;;8.10;;
52508;SDS011;38420;53.150;6.370;2024-01-10T07:52:32;15.30;;;7.68;;
52508;SDS011;38420;53.150;6.370;2024-01-10T07:54:58;19.52;;;8.50;;
52508;SDS011;38420;53.150;6.370;2024-01-10T07:57:24;20.02;;;8.80;;
52508;SDS011;38420;53.150;6.370;2024-01-10T07:59:49;19.70;;;8.30;;
52508;SDS011;38420;53.150;6.370;2024-01-10T08:02:15;20.10;;;9.45;;
52508;SDS011;38420;53.150;6.370;2024-01-10T08:04:41;23.35;;;10.73;;
52508;SDS011;38420;53.150;6.370;2024-01-10T08:07:07;19.45;;;9.15;;
52508;SDS011;38420;53.150;6.370;2024-01-10T08:09:33;18.95;;;8.40;;
52508;SDS011;38420;53.150;6.370;2024-01-10T08:11:59;20.52;;;9.57;;
52508;SDS011;38420;53.150;6.370;2024-01-10T08:14:25;20.73;;;9.15;;
52508;SDS011;38420;53.150;6.370;2024-01-10T08:16:51;22.27;;;10.80;;
52508;SDS011;38420;53.150;6.370;2024-01-10T08:19:19;21.65;;;9.00;;
52508;SDS011;38420;53.150;6.370;2024-01-10T08:21:45;17.80;;;9.35;;
52508;SDS011;38420;53.150;6.370;2024-01-10T08:24:11;19.67;;;8.88;;
52508;SDS011;38420;53.150;6.370;2024-01-10T08:26:36;23.15;;;8.77;;
52508;SDS011;38420;53.150;6.370;2024-01-10T08:29:03;18.95;;;7.43;;
52508;SDS011;38420;53.150;6.370;2024-01-10T08:31:29;16.75;;;7.82;;
52508;SDS011;38420;53.150;6.370;2024-01-10T08:33:55;20.50;;;9.30;;
52508;SDS011;38420;53.150;6.370;2024-01-10T08:36:22;19.92;;;8.65;;
52508;SDS011;38420;53.150;6.370;2024-01-10T08:38:49;19.15;;;8.43;;
52508;SDS011;38420;53.150;6.370;2024-01-10T08:41:15;20.35;;;9.18;;
52508;SDS011;38420;53.150;6.370;2024-01-10T08:43:41;24.42;;;8.23;;
52508;SDS011;38420;53.150;6.370;2024-01-10T08:46:08;23.02;;;8.10;;
52508;SDS011;38420;53.150;6.370;2024-01-10T08:48:34;24.70;;;9.23;;
52508;SDS011;38420;53.150;6.370;2024-01-10T08:51:01;21.73;;;7.38;;
52508;SDS011;38420;53.150;6.370;2024-01-10T08:53:27;19.80;;;7.75;;
52508;SDS011;38420;53.150;6.370;2024-01-10T08:55:53;17.23;;;6.60;;
52508;SDS011;38420;53.150;6.370;2024-01-10T08:58:18;12.90;;;6.75;;
52508;SDS011;38420;53.150;6.370;2024-01-10T09:00:44;20.55;;;7.00;;
52508;SDS011;38420;53.150;6.370;2024-01-10T09:03:09;19.33;;;7.20;;
52508;SDS011;38420;53.150;6.370;2024-01-10T09:05:35;20.38;;;6.95;;
52508;SDS011;38420;53.150;6.370;2024-01-10T09:08:01;17.02;;;8.57;;
52508;SDS011;38420;53.150;6.370;2024-01-10T09:10:28;23.60;;;8.63;;
52508;SDS011;38420;53.150;6.370;2024-01-10T09:12:53;17.70;;;6.07;;
52508;SDS011;38420;53.150;6.370;2024-01-10T09:15:19;15.70;;;6.45;;
52508;SDS011;38420;53.150;6.370;2024-01-10T09:17:45;16.45;;;7.78;;
52508;SDS011;38420;53.150;6.370;2024-01-10T09:20:11;19.45;;;7.70;;
52508;SDS011;38420;53.150;6.370;2024-01-10T09:22:37;15.75;;;6.78;;
52508;SDS011;38420;53.150;6.370;2024-01-10T09:25:06;18.38;;;8.45;;
52508;SDS011;38420;53.150;6.370;2024-01-10T09:27:33;16.60;;;6.47;;
52508;SDS011;38420;53.150;6.370;2024-01-10T09:30:00;22.73;;;7.22;;
52508;SDS011;38420;53.150;6.370;2024-01-10T09:32:27;18.27;;;6.82;;
52508;SDS011;38420;53.150;6.370;2024-01-10T09:34:56;18.42;;;7.70;;
52508;SDS011;38420;53.150;6.370;2024-01-10T09:37:21;22.33;;;7.88;;
52508;SDS011;38420;53.150;6.370;2024-01-10T09:39:48;17.05;;;7.50;;
52508;SDS011;38420;53.150;6.370;2024-01-10T09:42:14;20.00;;;7.85;;
52508;SDS011;38420;53.150;6.370;2024-01-10T09:44:40;21.42;;;8.02;;
52508;SDS011;38420;53.150;6.370;2024-01-10T09:47:07;19.23;;;6.82;;
52508;SDS011;38420;53.150;6.370;2024-01-10T09:49:34;22.80;;;7.90;;
52508;SDS011;38420;53.150;6.370;2024-01-10T09:52:01;17.50;;;8.05;;
52508;SDS011;38420;53.150;6.370;2024-01-10T09:54:29;24.70;;;8.27;;
52508;SDS011;38420;53.150;6.370;2024-01-10T09:56:58;21.58;;;7.97;;
52508;SDS011;38420;53.150;6.370;2024-01-10T09:59:24;16.10;;;6.93;;
52508;SDS011;38420;53.150;6.370;2024-01-10T10:01:53;20.42;;;7.13;;
52508;SDS011;38420;53.150;6.370;2024-01-10T10:04:21;19.80;;;7.45;;
52508;SDS011;38420;53.150;6.370;2024-01-10T10:06:57;19.10;;;8.60;;
52508;SDS011;38420;53.150;6.370;2024-01-10T10:09:24;19.45;;;7.35;;
52508;SDS011;38420;53.150;6.370;2024-01-10T10:11:54;15.18;;;6.75;;
52508;SDS011;38420;53.150;6.370;2024-01-10T10:14:20;15.93;;;5.93;;
52508;SDS011;38420;53.150;6.370;2024-01-10T10:16:46;17.98;;;7.22;;
52508;SDS011;38420;53.150;6.370;2024-01-10T10:19:11;16.77;;;6.88;;
52508;SDS011;38420;53.150;6.370;2024-01-10T10:21:38;18.42;;;7.68;;
52508;SDS011;38420;53.150;6.370;2024-01-10T10:24:04;19.90;;;6.78;;
52508;SDS011;38420;53.150;6.370;2024-01-10T10:26:33;16.20;;;7.53;;
52508;SDS011;38420;53.150;6.370;2024-01-10T10:28:59;20.60;;;7.82;;
52508;SDS011;38420;53.150;6.370;2024-01-10T10:31:26;21.65;;;8.13;;
52508;SDS011;38420;53.150;6.370;2024-01-10T10:33:52;22.83;;;8.50;;
52508;SDS011;38420;53.150;6.370;2024-01-10T10:36:18;20.77;;;9.68;;
52508;SDS011;38420;53.150;6.370;2024-01-10T10:38:48;19.77;;;8.90;;
52508;SDS011;38420;53.150;6.370;2024-01-10T10:41:14;24.08;;;9.57;;
52508;SDS011;38420;53.150;6.370;2024-01-10T10:43:40;19.50;;;9.57;;
52508;SDS011;38420;53.150;6.370;2024-01-10T10:46:07;17.70;;;9.40;;
52508;SDS011;38420;53.150;6.370;2024-01-10T10:48:41;21.95;;;10.02;;
52508;SDS011;38420;53.150;6.370;2024-01-10T10:53:35;23.48;;;10.23;;
52508;SDS011;38420;53.150;6.370;2024-01-10T10:56:03;22.15;;;9.40;;
52508;SDS011;38420;53.150;6.370;2024-01-10T10:58:33;18.83;;;9.10;;
52508;SDS011;38420;53.150;6.370;2024-01-10T11:01:02;19.15;;;9.35;;
52508;SDS011;38420;53.150;6.370;2024-01-10T11:03:35;19.38;;;9.52;;
52508;SDS011;38420;53.150;6.370;2024-01-10T11:06:02;20.90;;;8.68;;
52508;SDS011;38420;53.150;6.370;2024-01-10T11:08:30;20.40;;;9.13;;
52508;SDS011;38420;53.150;6.370;2024-01-10T11:11:02;19.73;;;8.60;;
52508;SDS011;38420;53.150;6.370;2024-01-10T11:21:38;19.92;;;8.18;;
52508;SDS011;38420;53.150;6.370;2024-01-10T11:24:06;18.92;;;7.72;;
52508;SDS011;38420;53.150;6.370;2024-01-10T11:26:36;20.75;;;7.88;;
52508;SDS011;38420;53.150;6.370;2024-01-10T11:29:03;21.63;;;8.52;;
52508;SDS011;38420;53.150;6.370;2024-01-10T11:31:30;18.25;;;7.25;;
52508;SDS011;38420;53.150;6.370;2024-01-10T11:33:57;17.05;;;8.18;;
52508;SDS011;38420;53.150;6.370;2024-01-10T11:36:23;17.42;;;7.40;;
52508;SDS011;38420;53.150;6.370;2024-01-10T11:41:31;16.02;;;7.55;;
52508;SDS011;38420;53.150;6.370;2024-01-10T11:46:38;17.90;;;7.57;;
52508;SDS011;38420;53.150;6.370;2024-01-10T11:49:11;16.52;;;6.85;;
52508;SDS011;38420;53.150;6.370;2024-01-10T11:51:41;14.38;;;6.57;;
52508;SDS011;38420;53.150;6.370;2024-01-10T11:54:07;15.88;;;6.47;;
52508;SDS011;38420;53.150;6.370;2024-01-10T11:56:40;14.30;;;6.65;;
52508;SDS011;38420;53.150;6.370;2024-01-10T11:59:07;19.20;;;6.72;;
52508;SDS011;38420;53.150;6.370;2024-01-10T12:01:36;15.23;;;6.25;;
52508;SDS011;38420;53.150;6.370;2024-01-10T12:04:02;15.20;;;6.15;;
52508;SDS011;38420;53.150;6.370;2024-01-10T12:06:29;16.50;;;5.97;;
52508;SDS011;38420;53.150;6.370;2024-01-10T12:08:56;15.40;;;6.47;;
52508;SDS011;38420;53.150;6.370;2024-01-10T12:11:22;14.52;;;6.07;;
52508;SDS011;38420;53.150;6.370;2024-01-10T12:13:48;14.55;;;5.70;;
52508;SDS011;38420;53.150;6.370;2024-01-10T12:16:14;15.13;;;6.63;;
52508;SDS011;38420;53.150;6.370;2024-01-10T12:18:41;12.15;;;5.95;;
52508;SDS011;38420;53.150;6.370;2024-01-10T12:21:07;14.27;;;5.78;;
52508;SDS011;38420;53.150;6.370;2024-01-10T12:23:34;15.65;;;6.53;;
52508;SDS011;38420;53.150;6.370;2024-01-10T12:26:03;19.00;;;7.30;;
52508;SDS011;38420;53.150;6.370;2024-01-10T12:28:37;11.52;;;5.45;;
52508;SDS011;38420;53.150;6.370;2024-01-10T12:31:04;13.75;;;6.00;;
52508;SDS011;38420;53.150;6.370;2024-01-10T12:33:32;13.30;;;6.10;;
52508;SDS011;38420;53.150;6.370;2024-01-10T12:36:04;15.18;;;6.22;;
52508;SDS011;38420;53.150;6.370;2024-01-10T12:38:34;18.60;;;7.50;;
52508;SDS011;38420;53.150;6.370;2024-01-10T12:41:01;18.17;;;6.32;;
52508;SDS011;38420;53.150;6.370;2024-01-10T12:43:28;12.25;;;5.28;;
52508;SDS011;38420;53.150;6.370;2024-01-10T12:46:06;17.67;;;6.95;;
52508;SDS011;38420;53.150;6.370;2024-01-10T12:48:39;12.25;;;5.18;;
52508;SDS011;38420;53.150;6.370;2024-01-10T12:51:09;15.82;;;5.95;;
52508;SDS011;38420;53.150;6.370;2024-01-10T12:53:36;18.02;;;6.68;;
52508;SDS011;38420;53.150;6.370;2024-01-10T12:56:04;14.35;;;6.20;;
52508;SDS011;38420;53.150;6.370;2024-01-10T12:58:32;16.80;;;6.18;;
52508;SDS011;38420;53.150;6.370;2024-01-10T13:00:58;19.63;;;6.30;;
52508;SDS011;38420;53.150;6.370;2024-01-10T13:03:24;15.32;;;5.97;;
52508;SDS011;38420;53.150;6.370;2024-01-10T13:05:50;15.77;;;6.20;;
52508;SDS011;38420;53.150;6.370;2024-01-10T13:08:17;16.90;;;6.07;;
52508;SDS011;38420;53.150;6.370;2024-01-10T13:10:44;16.13;;;6.38;;
52508;SDS011;38420;53.150;6.370;2024-01-10T13:13:10;15.82;;;6.07;;
52508;SDS011;38420;53.150;6.370;2024-01-10T13:15:37;15.93;;;6.07;;
52508;SDS011;38420;53.150;6.370;2024-01-10T13:18:02;11.57;;;6.15;;
52508;SDS011;38420;53.150;6.370;2024-01-10T13:20:28;15.65;;;5.75;;
52508;SDS011;38420;53.150;6.370;2024-01-10T13:22:54;16.40;;;6.15;;
52508;SDS011;38420;53.150;6.370;2024-01-10T13:25:19;19.25;;;6.60;;
52508;SDS011;38420;53.150;6.370;2024-01-10T13:27:51;17.25;;;6.97;;
52508;SDS011;38420;53.150;6.370;2024-01-10T13:30:17;14.27;;;6.63;;
52508;SDS011;38420;53.150;6.370;2024-01-10T13:32:44;14.15;;;6.43;;
52508;SDS011;38420;53.150;6.370;2024-01-10T13:35:10;16.23;;;6.57;;
52508;SDS011;38420;53.150;6.370;2024-01-10T13:37:36;17.55;;;6.40;;
52508;SDS011;38420;53.150;6.370;2024-01-10T13:40:02;14.93;;;6.68;;
52508;SDS011;38420;53.150;6.370;2024-01-10T13:42:30;17.05;;;7.10;;
52508;SDS011;38420;53.150;6.370;2024-01-10T13:44:56;15.85;;;6.32;;
52508;SDS011;38420;53.150;6.370;2024-01-10T13:47:22;16.48;;;6.82;;
52508;SDS011;38420;53.150;6.370;2024-01-10T13:49:48;18.42;;;6.95;;
52508;SDS011;38420;53.150;6.370;2024-01-10T13:52:14;17.88;;;6.88;;
52508;SDS011;38420;53.150;6.370;2024-01-10T13:54:39;16.05;;;6.63;;
52508;SDS011;38420;53.150;6.370;2024-01-10T13:57:05;17.42;;;6.57;;
52508;SDS011;38420;53.150;6.370;2024-01-10T13:59:30;15.90;;;6.93;;
52508;SDS011;38420;53.150;6.370;2024-01-10T14:01:56;20.23;;;8.60;;
52508;SDS011;38420;53.150;6.370;2024-01-10T14:04:24;14.63;;;6.10;;
52508;SDS011;38420;53.150;6.370;2024-01-10T14:06:50;15.60;;;6.40;;
52508;SDS011;38420;53.150;6.370;2024-01-10T14:09:16;15.90;;;6.78;;
52508;SDS011;38420;53.150;6.370;2024-01-10T14:11:43;13.95;;;6.00;;
52508;SDS011;38420;53.150;6.370;2024-01-10T14:14:09;14.45;;;6.13;;
52508;SDS011;38420;53.150;6.370;2024-01-10T14:16:35;15.57;;;6.05;;
52508;SDS011;38420;53.150;6.370;2024-01-10T14:19:01;14.02;;;5.97;;
52508;SDS011;38420;53.150;6.370;2024-01-10T14:21:26;16.45;;;6.63;;
52508;SDS011;38420;53.150;6.370;2024-01-10T14:23:52;18.38;;;7.57;;
52508;SDS011;38420;53.150;6.370;2024-01-10T14:26:17;15.60;;;5.90;;
52508;SDS011;38420;53.150;6.370;2024-01-10T14:28:43;15.07;;;6.18;;
52508;SDS011;38420;53.150;6.370;2024-01-10T14:31:09;16.42;;;5.78;;
52508;SDS011;38420;53.150;6.370;2024-01-10T14:33:38;12.07;;;5.60;;
52508;SDS011;38420;53.150;6.370;2024-01-10T14:36:07;16.38;;;6.57;;
52508;SDS011;38420;53.150;6.370;2024-01-10T14:38:32;17.35;;;7.03;;
52508;SDS011;38420;53.150;6.370;2024-01-10T14:40:58;18.75;;;8.10;;
52508;SDS011;38420;53.150;6.370;2024-01-10T14:43:24;16.42;;;5.80;;